Time;durP1;ratioP1;P1;durP2;ratioP2;P2;SDS_P1;SDS_P2;PMS_P1;PMS_P2;Temp;Humidity;BMP_temperature;BMP_pressure;BME280_temperature;BME280_humidity;BME280_pressure;Samples;Min_cycle;Max_cycle;Signal;HPM_P1;HPM_P2
2023/05/07 00:00:15;;;;;;;32.33;21.58;;;11.80;99.90;;;;;;5096117;28;20123;-85
2023/05/07 00:02:40;;;;;;;32.28;21.40;;;11.80;99.90;;;;;;5095259;28;20040;-85
2023/05/07 00:05:07;;;;;;;31.50;22.08;;;11.80;99.90;;;;;;5096232;28;20419;-85
2023/05/07 00:07:32;;;;;;;33.08;21.88;;;11.70;99.90;;;;;;5096108;28;20048;-85
2023/05/07 00:09:58;;;;;;;30.48;22.60;;;11.70;99.90;;;;;;5094852;28;20071;-85
2023/05/07 00:12:24;;;;;;;30.73;21.80;;;11.70;99.90;;;;;;5096151;28;20043;-86
2023/05/07 00:14:49;;;;;;;37.75;23.80;;;11.70;99.90;;;;;;5094804;28;20040;-85
2023/05/07 00:17:15;;;;;;;31.10;22.58;;;11.60;99.90;;;;;;5096087;28;20036;-85
2023/05/07 00:19:40;;;;;;;34.85;21.92;;;11.60;99.90;;;;;;5095804;28;20479;-85
2023/05/07 00:22:08;;;;;;;34.05;23.23;;;11.60;99.90;;;;;;5095902;28;20036;-85
2023/05/07 00:24:34;;;;;;;35.20;22.88;;;11.60;99.90;;;;;;5095550;28;20376;-85
2023/05/07 00:27:01;;;;;;;31.63;21.77;;;11.60;99.90;;;;;;5094970;28;20102;-85
2023/05/07 00:29:27;;;;;;;29.75;21.60;;;11.60;99.90;;;;;;5094606;28;20456;-85
2023/05/07 00:31:54;;;;;;;32.03;21.90;;;11.60;99.90;;;;;;5095620;28;20078;-85
2023/05/07 00:34:20;;;;;;;34.28;23.02;;;11.50;99.90;;;;;;5094222;28;20093;-85
2023/05/07 00:36:45;;;;;;;32.67;22.88;;;11.40;99.90;;;;;;5095990;28;20048;-85
2023/05/07 00:39:11;;;;;;;32.50;22.48;;;11.50;99.90;;;;;;5095515;28;20094;-85
2023/05/07 00:41:37;;;;;;;35.50;22.52;;;11.50;99.90;;;;;;5094223;28;20623;-85
2023/05/07 00:44:03;;;;;;;36.20;25.00;;;11.50;99.90;;;;;;5095415;28;20066;-85
2023/05/07 00:46:30;;;;;;;33.88;24.00;;;11.40;99.90;;;;;;5095273;28;20115;-85
2023/05/07 00:48:56;;;;;;;40.20;25.20;;;11.40;99.90;;;;;;5094376;28;20139;-85
2023/05/07 00:51:23;;;;;;;37.60;23.50;;;11.40;99.90;;;;;;5095321;28;20040;-85
2023/05/07 00:53:49;;;;;;;40.67;24.65;;;11.40;99.90;;;;;;5094262;28;20039;-85
2023/05/07 00:56:15;;;;;;;36.83;23.73;;;11.30;99.90;;;;;;5095349;28;20044;-85
2023/05/07 00:58:41;;;;;;;35.55;25.42;;;11.30;99.90;;;;;;5095942;28;20043;-85
2023/05/07 01:01:07;;;;;;;35.72;24.00;;;11.30;99.90;;;;;;5093754;28;20044;-85
2023/05/07 01:03:33;;;;;;;34.90;24.52;;;11.30;99.90;;;;;;5094945;28;20104;-85
2023/05/07 01:06:00;;;;;;;33.30;24.50;;;11.30;99.90;;;;;;5095302;28;20127;-85
2023/05/07 01:08:29;;;;;;;39.63;23.65;;;11.20;99.90;;;;;;5095268;28;20052;-84
2023/05/07 01:10:56;;;;;;;38.85;24.63;;;11.30;99.90;;;;;;5094899;28;20036;-84
2023/05/07 01:13:22;;;;;;;41.85;24.92;;;11.30;99.90;;;;;;5094925;28;20044;-84
2023/05/07 01:15:47;;;;;;;42.22;26.77;;;11.20;99.90;;;;;;5093852;28;20052;-84
2023/05/07 01:18:13;;;;;;;37.15;24.63;;;11.20;99.90;;;;;;5094802;28;20365;-85
2023/05/07 01:20:40;;;;;;;42.85;26.92;;;11.10;99.90;;;;;;5093305;28;20052;-85
2023/05/07 01:23:07;;;;;;;40.85;26.80;;;11.20;99.90;;;;;;5094895;28;20123;-84
2023/05/07 01:25:32;;;;;;;47.00;28.02;;;11.20;99.90;;;;;;5094451;28;20059;-84
2023/05/07 01:28:02;;;;;;;38.45;25.73;;;11.20;99.90;;;;;;5094648;28;20044;-84
2023/05/07 01:30:29;;;;;;;41.47;26.40;;;11.10;99.90;;;;;;5094523;28;20050;-84
2023/05/07 01:33:08;;;;;;;41.80;26.08;;;11.10;99.90;;;;;;5093148;28;20048;-84
2023/05/07 01:35:41;;;;;;;42.42;27.67;;;11.20;99.90;;;;;;5093580;28;20054;-84
2023/05/07 01:38:08;;;;;;;45.83;28.20;;;11.10;99.90;;;;;;5094316;28;20059;-83
2023/05/07 01:40:34;;;;;;;41.40;27.48;;;11.10;99.90;;;;;;5094278;28;20046;-84
2023/05/07 01:43:02;;;;;;;43.30;28.48;;;11.10;99.90;;;;;;5094354;28;20079;-84
2023/05/07 01:45:32;;;;;;;44.00;28.58;;;11.10;99.90;;;;;;5094131;28;20050;-84
2023/05/07 01:48:02;;;;;;;48.80;28.63;;;11.00;99.90;;;;;;5094333;28;20046;-84
2023/05/07 01:50:29;;;;;;;49.28;30.13;;;11.00;99.90;;;;;;5094209;28;20511;-84
2023/05/07 01:52:55;;;;;;;53.50;30.27;;;11.00;99.90;;;;;;5093163;28;20206;-84
2023/05/07 01:55:21;;;;;;;48.53;29.02;;;11.00;99.90;;;;;;5094155;28;20549;-84
2023/05/07 01:57:47;;;;;;;47.92;30.23;;;11.00;99.90;;;;;;5093938;28;20105;-84
2023/05/07 02:00:13;;;;;;;51.08;31.75;;;11.00;99.90;;;;;;5093776;28;20068;-84
2023/05/07 02:02:39;;;;;;;54.17;33.58;;;10.90;99.90;;;;;;5092784;28;20398;-84
2023/05/07 02:05:05;;;;;;;52.85;29.98;;;10.80;99.90;;;;;;5094026;28;20082;-84
2023/05/07 02:07:30;;;;;;;56.17;32.90;;;10.90;99.90;;;;;;5092866;28;20444;-84
2023/05/07 02:09:56;;;;;;;53.15;31.95;;;10.90;99.90;;;;;;5093973;28;20044;-84
2023/05/07 02:12:22;;;;;;;58.00;31.80;;;10.90;99.90;;;;;;5093056;28;20542;-85
2023/05/07 02:14:48;;;;;;;54.20;31.45;;;10.90;99.90;;;;;;5093914;28;20040;-85
2023/05/07 02:17:14;;;;;;;58.53;33.75;;;10.90;99.90;;;;;;5093880;28;20411;-85
2023/05/07 02:19:39;;;;;;;60.58;33.67;;;10.90;99.90;;;;;;5093769;28;20046;-85
2023/05/07 02:22:05;;;;;;;56.85;33.22;;;10.90;99.90;;;;;;5093657;28;20440;-85
2023/05/07 02:24:31;;;;;;;63.22;35.33;;;10.80;99.90;;;;;;5092276;28;20048;-84
2023/05/07 02:26:56;;;;;;;60.67;34.88;;;10.90;99.90;;;;;;5092308;28;20048;-84
2023/05/07 02:29:22;;;;;;;57.60;34.05;;;10.90;99.90;;;;;;5093897;28;20523;-85
2023/05/07 02:31:52;;;;;;;60.10;34.03;;;10.80;99.90;;;;;;5093686;28;20047;-85
2023/05/07 02:34:19;;;;;;;62.67;35.72;;;10.80;99.90;;;;;;5092411;28;20453;-85
2023/05/07 02:36:45;;;;;;;59.58;35.25;;;10.90;99.90;;;;;;5093596;28;20044;-85
2023/05/07 02:39:12;;;;;;;62.78;35.53;;;10.80;99.90;;;;;;5092573;28;20044;-85
2023/05/07 02:41:38;;;;;;;62.83;37.42;;;10.90;99.90;;;;;;5093307;28;20131;-85
2023/05/07 02:44:04;;;;;;;64.88;38.00;;;10.80;99.90;;;;;;5092186;28;20128;-85
2023/05/07 02:46:29;;;;;;;68.32;36.13;;;10.80;99.90;;;;;;5093316;28;20119;-85
2023/05/07 02:48:55;;;;;;;69.00;35.92;;;10.80;99.90;;;;;;5093393;28;20044;-84
2023/05/07 02:51:22;;;;;;;63.08;36.20;;;10.80;99.90;;;;;;5093188;28;20086;-85
2023/05/07 02:53:48;;;;;;;68.75;37.58;;;10.90;99.90;;;;;;5093471;28;20040;-84
2023/05/07 02:56:13;;;;;;;61.13;33.83;;;10.90;99.90;;;;;;5092006;28;20044;-84
2023/05/07 02:58:39;;;;;;;65.68;35.30;;;10.80;99.90;;;;;;5093350;28;20048;-85
2023/05/07 03:01:05;;;;;;;64.28;34.50;;;10.80;99.90;;;;;;5093451;28;20052;-84
2023/05/07 03:03:31;;;;;;;68.80;37.22;;;10.90;99.90;;;;;;5093525;28;20059;-84
2023/05/07 03:05:57;;;;;;;64.82;37.65;;;10.90;99.90;;;;;;5092265;28;20043;-84
2023/05/07 03:08:23;;;;;;;59.85;34.05;;;10.80;99.90;;;;;;5093301;28;20377;-84
2023/05/07 03:10:48;;;;;;;60.00;35.25;;;10.90;99.90;;;;;;5093146;28;20055;-84
2023/05/07 03:13:14;;;;;;;57.47;35.42;;;10.90;99.90;;;;;;5093159;28;20036;-84
2023/05/07 03:15:40;;;;;;;56.63;32.05;;;10.80;99.90;;;;;;5093266;28;20036;-84
2023/05/07 03:18:06;;;;;;;59.00;34.00;;;10.80;99.90;;;;;;5091776;28;20475;-84
2023/05/07 03:20:31;;;;;;;61.17;35.50;;;10.80;99.90;;;;;;5091821;28;20098;-84
2023/05/07 03:22:57;;;;;;;56.13;33.58;;;10.70;99.90;;;;;;5093449;28;20044;-84
2023/05/07 03:25:23;;;;;;;57.72;34.03;;;10.80;99.90;;;;;;5095553;28;20059;-84
2023/05/07 03:27:49;;;;;;;56.35;32.28;;;10.80;99.90;;;;;;5095512;28;20426;-84
2023/05/07 03:30:15;;;;;;;68.13;37.55;;;10.80;99.90;;;;;;5096897;28;20063;-84
2023/05/07 03:32:40;;;;;;;69.82;36.20;;;10.70;99.90;;;;;;5096858;28;20036;-84
2023/05/07 03:35:06;;;;;;;62.53;35.00;;;10.80;99.90;;;;;;5096787;28;20126;-84
2023/05/07 03:37:32;;;;;;;66.07;37.05;;;10.80;99.90;;;;;;5096838;28;20519;-84
2023/05/07 03:39:58;;;;;;;69.70;37.45;;;10.70;99.90;;;;;;5095264;28;20047;-84
2023/05/07 03:42:24;;;;;;;68.78;38.72;;;10.80;99.90;;;;;;5096781;28;20055;-84
2023/05/07 03:44:49;;;;;;;66.47;36.42;;;10.80;99.90;;;;;;5095602;28;20102;-83
2023/05/07 03:47:15;;;;;;;67.13;35.95;;;10.70;99.90;;;;;;5096559;28;20046;-83
2023/05/07 03:49:40;;;;;;;61.33;34.08;;;10.80;99.90;;;;;;5096365;28;20119;-83
2023/05/07 03:52:06;;;;;;;73.13;36.67;;;10.70;99.90;;;;;;5095185;28;20139;-84
2023/05/07 03:54:32;;;;;;;64.20;36.47;;;10.70;99.90;;;;;;5096320;28;20060;-84
2023/05/07 03:56:58;;;;;;;66.07;36.00;;;10.70;99.90;;;;;;5096252;28;20138;-84
2023/05/07 03:59:23;;;;;;;62.78;33.53;;;10.70;99.90;;;;;;5096067;28;20048;-84
2023/05/07 04:01:49;;;;;;;61.20;33.72;;;10.60;99.90;;;;;;5096066;28;20093;-84
2023/05/07 04:04:15;;;;;;;62.35;34.53;;;10.60;99.90;;;;;;5096110;28;20495;-84
2023/05/07 04:06:41;;;;;;;62.63;34.60;;;10.60;99.90;;;;;;5095483;28;20130;-84
2023/05/07 04:09:07;;;;;;;63.35;34.78;;;10.60;99.90;;;;;;5094553;28;20151;-84
2023/05/07 04:11:33;;;;;;;64.93;35.83;;;10.60;99.90;;;;;;5095708;28;20086;-83
2023/05/07 04:13:59;;;;;;;62.35;34.25;;;10.50;99.90;;;;;;5095990;28;20083;-84
2023/05/07 04:16:25;;;;;;;60.03;33.65;;;10.60;99.90;;;;;;5096160;28;20040;-84
2023/05/07 04:18:50;;;;;;;63.97;34.88;;;10.60;99.90;;;;;;5095900;28;20044;-84
2023/05/07 04:21:20;;;;;;;65.25;36.80;;;10.50;99.90;;;;;;5095830;28;20062;-83
2023/05/07 04:23:47;;;;;;;64.68;35.58;;;10.50;99.90;;;;;;5095644;28;20052;-83
2023/05/07 04:26:13;;;;;;;67.72;35.95;;;10.60;99.90;;;;;;5095419;28;20097;-83
2023/05/07 04:28:40;;;;;;;67.90;35.88;;;10.50;99.90;;;;;;5095732;28;20055;-84
2023/05/07 04:31:06;;;;;;;66.95;36.90;;;10.50;99.90;;;;;;5094640;28;20044;-83
2023/05/07 04:33:32;;;;;;;65.05;34.70;;;10.50;99.90;;;;;;5095474;28;20048;-83
2023/05/07 04:36:02;;;;;;;65.25;36.33;;;10.40;99.90;;;;;;5094888;28;20043;-83
2023/05/07 04:38:29;;;;;;;68.40;36.35;;;10.50;99.90;;;;;;5095580;28;20052;-84
2023/05/07 04:40:55;;;;;;;66.55;35.58;;;10.50;99.90;;;;;;5095232;28;20127;-83
2023/05/07 04:43:21;;;;;;;62.88;34.05;;;10.40;99.90;;;;;;5095368;28;20031;-83
2023/05/07 04:45:49;;;;;;;64.43;34.50;;;10.50;99.90;;;;;;5095513;28;20484;-84
2023/05/07 04:48:15;;;;;;;61.10;33.17;;;10.50;99.90;;;;;;5095160;28;20122;-84
2023/05/07 04:50:41;;;;;;;55.75;32.03;;;10.40;99.90;;;;;;5095127;28;20119;-83
2023/05/07 04:53:07;;;;;;;56.47;32.00;;;10.50;99.90;;;;;;5095371;28;20127;-83
2023/05/07 04:55:32;;;;;;;51.80;30.83;;;10.50;99.90;;;;;;5095209;28;20407;-83
2023/05/07 04:58:00;;;;;;;57.80;32.53;;;10.50;99.90;;;;;;5095019;28;20044;-83
2023/05/07 05:00:26;;;;;;;53.63;33.25;;;10.40;99.90;;;;;;5095049;28;20036;-83
2023/05/07 05:02:51;;;;;;;59.03;33.20;;;10.40;99.90;;;;;;5095107;28;20446;-83
2023/05/07 05:05:17;;;;;;;62.80;34.53;;;10.50;99.90;;;;;;5095091;28;20472;-83
2023/05/07 05:07:43;;;;;;;71.85;37.13;;;10.50;99.90;;;;;;5094979;28;20051;-83
2023/05/07 05:10:08;;;;;;;69.03;38.13;;;10.40;99.90;;;;;;5094761;28;20087;-83
2023/05/07 05:12:34;;;;;;;63.85;35.83;;;10.50;99.90;;;;;;5094815;28;20051;-83
2023/05/07 05:15:00;;;;;;;58.40;31.85;;;10.50;99.90;;;;;;5094777;28;20048;-83
2023/05/07 05:17:25;;;;;;;57.72;31.02;;;10.40;99.90;;;;;;5094684;28;20051;-83
2023/05/07 05:19:51;;;;;;;57.45;31.60;;;10.40;99.90;;;;;;5094868;28;20141;-83
2023/05/07 05:22:16;;;;;;;52.55;32.70;;;10.50;99.90;;;;;;5094668;28;20075;-83
2023/05/07 05:24:42;;;;;;;55.80;32.92;;;10.30;99.90;;;;;;5094427;28;20131;-83
2023/05/07 05:27:08;;;;;;;51.50;30.73;;;10.40;99.90;;;;;;5094405;28;20091;-83
2023/05/07 05:29:33;;;;;;;59.50;30.92;;;10.30;99.90;;;;;;5093542;28;20043;-83
2023/05/07 05:31:59;;;;;;;52.63;29.63;;;10.40;99.90;;;;;;5094552;28;20052;-83
2023/05/07 05:34:25;;;;;;;49.45;28.05;;;10.40;99.90;;;;;;5094265;28;20048;-83
2023/05/07 05:36:50;;;;;;;49.67;29.15;;;10.30;99.90;;;;;;5093286;28;20444;-83
2023/05/07 05:39:16;;;;;;;54.58;30.33;;;10.30;99.90;;;;;;5094424;28;20109;-84
2023/05/07 05:41:42;;;;;;;52.83;31.30;;;10.30;99.90;;;;;;5094330;28;20126;-83
2023/05/07 05:44:08;;;;;;;59.42;33.47;;;10.30;99.90;;;;;;5094192;28;20166;-83
2023/05/07 05:46:34;;;;;;;58.80;34.65;;;10.30;99.90;;;;;;5093081;28;20036;-83
2023/05/07 05:49:00;;;;;;;65.55;33.97;;;10.30;99.90;;;;;;5094078;28;20123;-83
2023/05/07 05:51:26;;;;;;;63.17;36.28;;;10.30;99.90;;;;;;5093908;28;20207;-83
2023/05/07 05:53:52;;;;;;;64.50;36.45;;;10.20;99.90;;;;;;5092923;28;20040;-82
2023/05/07 05:56:17;;;;;;;66.03;35.08;;;10.30;99.90;;;;;;5093863;28;20051;-82
2023/05/07 05:58:43;;;;;;;65.45;35.17;;;10.30;99.90;;;;;;5094059;28;20533;-82
2023/05/07 06:01:09;;;;;;;70.95;37.08;;;10.30;99.90;;;;;;5094077;28;20050;-83
2023/05/07 06:03:35;;;;;;;75.38;39.65;;;10.30;99.90;;;;;;5094072;28;20075;-83
2023/05/07 06:06:00;;;;;;;73.68;39.92;;;10.30;99.90;;;;;;5092406;28;20083;-83
2023/05/07 06:08:29;;;;;;;79.43;41.92;;;10.30;99.90;;;;;;5093965;28;20090;-83
2023/05/07 06:10:55;;;;;;;77.50;39.60;;;10.30;99.90;;;;;;5093829;28;20055;-83
2023/05/07 06:13:20;;;;;;;87.68;40.40;;;10.30;99.90;;;;;;5093803;28;20040;-83
2023/05/07 06:15:46;;;;;;;79.18;41.75;;;10.40;99.90;;;;;;5093820;28;20048;-83
2023/05/07 06:18:12;;;;;;;86.80;43.45;;;10.40;99.90;;;;;;5093879;28;20089;-83
2023/05/07 06:20:37;;;;;;;85.38;42.40;;;10.40;99.90;;;;;;5093759;28;20459;-84
2023/05/07 06:23:03;;;;;;;90.32;45.13;;;10.40;99.90;;;;;;5093683;28;20412;-84
2023/05/07 06:25:30;;;;;;;88.38;44.60;;;10.40;99.90;;;;;;5093396;28;20048;-84
2023/05/07 06:27:57;;;;;;;90.03;45.45;;;10.40;99.90;;;;;;5093473;28;20487;-83
2023/05/07 06:30:22;;;;;;;84.95;43.63;;;10.40;99.90;;;;;;5093379;28;20614;-83
2023/05/07 06:32:48;;;;;;;82.82;44.78;;;10.40;99.90;;;;;;5091949;28;20082;-83
2023/05/07 06:35:13;;;;;;;92.78;45.85;;;10.50;99.90;;;;;;5084522;28;20040;-84
2023/05/07 06:37:42;;;;;;;93.93;46.85;;;10.50;99.90;;;;;;5072063;28;20102;-84
2023/05/07 06:40:08;;;;;;;87.28;44.40;;;10.50;99.90;;;;;;5071738;28;20044;-85
2023/05/07 06:42:35;;;;;;;88.15;44.08;;;10.50;99.90;;;;;;5072269;28;20076;-86
2023/05/07 06:45:01;;;;;;;88.85;46.58;;;10.50;99.90;;;;;;5071584;28;20044;-85
2023/05/07 06:47:26;;;;;;;83.75;43.88;;;10.50;99.90;;;;;;5071925;28;20044;-86
2023/05/07 06:49:52;;;;;;;83.25;43.88;;;10.50;99.90;;;;;;5073017;28;20533;-88
2023/05/07 06:52:18;;;;;;;86.93;44.30;;;10.40;99.90;;;;;;5071903;28;20040;-85
2023/05/07 06:54:43;;;;;;;81.40;42.88;;;10.50;99.90;;;;;;5073015;28;20080;-86
2023/05/07 06:57:09;;;;;;;80.60;42.08;;;10.50;99.90;;;;;;5072905;28;20053;-86
2023/05/07 06:59:34;;;;;;;80.18;43.35;;;10.40;99.90;;;;;;5076828;28;20382;-86
2023/05/07 07:02:00;;;;;;;82.80;42.83;;;10.40;99.90;;;;;;5076971;28;20135;-86
2023/05/07 07:04:26;;;;;;;77.13;42.10;;;10.40;99.90;;;;;;5075951;28;20116;-86
2023/05/07 07:06:53;;;;;;;74.75;40.83;;;10.40;99.90;;;;;;5076837;28;20480;-87
2023/05/07 07:09:19;;;;;;;77.88;41.65;;;10.50;99.90;;;;;;5077008;28;20041;-86
2023/05/07 07:11:44;;;;;;;80.70;43.03;;;10.40;99.90;;;;;;5075378;28;20052;-87
2023/05/07 07:14:10;;;;;;;73.97;39.25;;;10.40;99.90;;;;;;5076620;28;20076;-87
2023/05/07 07:16:36;;;;;;;76.95;41.17;;;10.40;99.90;;;;;;5075444;28;20075;-87
2023/05/07 07:19:01;;;;;;;73.57;39.00;;;10.40;99.90;;;;;;5075263;28;20546;-86
2023/05/07 07:21:27;;;;;;;61.33;36.03;;;10.40;99.90;;;;;;5075087;28;20048;-87
2023/05/07 07:23:52;;;;;;;64.88;35.92;;;10.40;99.90;;;;;;5075680;28;20044;-88
2023/05/07 07:26:19;;;;;;;61.90;35.38;;;10.40;99.90;;;;;;5075022;28;20622;-87
2023/05/07 07:28:45;;;;;;;58.60;33.63;;;10.30;99.90;;;;;;5076493;28;20102;-87
2023/05/07 07:31:11;;;;;;;62.83;36.17;;;10.40;99.90;;;;;;5074990;28;20040;-87
2023/05/07 07:33:37;;;;;;;64.13;35.13;;;10.30;99.90;;;;;;5074878;28;20503;-87
2023/05/07 07:36:05;;;;;;;60.25;32.47;;;10.30;99.90;;;;;;5076140;28;20041;-87
2023/05/07 07:38:31;;;;;;;56.80;32.75;;;10.30;99.90;;;;;;5074962;28;20037;-82
2023/05/07 07:40:56;;;;;;;61.72;34.05;;;10.30;99.90;;;;;;5074976;28;20048;-87
2023/05/07 07:43:22;;;;;;;59.88;34.00;;;10.30;99.90;;;;;;5076220;28;20441;-89
2023/05/07 07:45:48;;;;;;;64.78;36.65;;;10.40;99.90;;;;;;5075152;28;20103;-88
2023/05/07 07:48:14;;;;;;;66.70;36.17;;;10.50;99.90;;;;;;5076153;28;20518;-87
2023/05/07 07:50:39;;;;;;;63.72;35.80;;;10.50;99.90;;;;;;5076113;28;20048;-86
2023/05/07 07:53:05;;;;;;;67.80;36.80;;;10.40;99.90;;;;;;5075867;28;20052;-88
2023/05/07 07:55:32;;;;;;;66.07;36.15;;;10.50;99.90;;;;;;5076055;28;20047;-88
2023/05/07 07:57:57;;;;;;;56.60;34.33;;;10.60;99.90;;;;;;5075654;28;20063;-87
2023/05/07 08:00:23;;;;;;;56.35;33.67;;;10.50;99.90;;;;;;5075937;28;20399;-88
2023/05/07 08:02:49;;;;;;;53.42;31.17;;;10.60;99.90;;;;;;5075658;28;20068;-88
2023/05/07 08:05:15;;;;;;;53.13;30.38;;;10.60;99.90;;;;;;5074349;28;20041;-89
2023/05/07 08:07:41;;;;;;;54.10;31.55;;;10.70;99.90;;;;;;5075785;28;20036;-89
2023/05/07 08:10:06;;;;;;;60.78;34.60;;;10.60;99.90;;;;;;5074673;28;20458;-89
2023/05/07 08:12:32;;;;;;;63.78;37.70;;;10.60;99.90;;;;;;5075594;28;20043;-89
2023/05/07 08:14:58;;;;;;;62.88;37.88;;;10.60;99.90;;;;;;5074183;28;20079;-88
2023/05/07 08:17:24;;;;;;;65.78;37.50;;;10.70;99.90;;;;;;5075395;28;20056;-89
2023/05/07 08:19:50;;;;;;;61.53;33.58;;;10.60;99.90;;;;;;5075444;28;20045;-88
2023/05/07 08:22:17;;;;;;;53.83;31.58;;;10.60;99.90;;;;;;5075283;28;20480;-89
2023/05/07 08:24:43;;;;;;;48.90;29.73;;;10.70;99.90;;;;;;5073839;28;20056;-89
2023/05/07 08:27:08;;;;;;;46.55;27.90;;;10.70;99.90;;;;;;5075169;28;20048;-88
2023/05/07 08:29:34;;;;;;;48.92;27.63;;;10.70;99.90;;;;;;5074343;28;20464;-89
2023/05/07 08:32:00;;;;;;;50.03;29.10;;;10.80;99.90;;;;;;5073847;28;20044;-89
2023/05/07 08:34:25;;;;;;;50.15;30.83;;;10.90;99.90;;;;;;5075161;28;20048;-88
2023/05/07 08:36:51;;;;;;;60.03;33.47;;;10.80;99.90;;;;;;5073735;28;20041;-89
2023/05/07 08:39:17;;;;;;;64.00;36.15;;;10.80;99.90;;;;;;5074983;28;20086;-89
2023/05/07 08:41:45;;;;;;;65.32;35.60;;;10.90;99.90;;;;;;5074652;28;20106;-89
2023/05/07 08:44:16;;;;;;;61.92;35.97;;;10.90;99.90;;;;;;5074843;28;20052;-89
2023/05/07 08:46:43;;;;;;;59.65;34.30;;;10.90;99.90;;;;;;5073578;28;20048;-88
2023/05/07 08:49:09;;;;;;;59.75;34.78;;;11.00;99.90;;;;;;5073804;28;20062;-87
2023/05/07 08:51:36;;;;;;;60.92;35.88;;;11.00;99.90;;;;;;5073894;28;20047;-88
2023/05/07 08:54:02;;;;;;;57.20;33.53;;;11.10;99.90;;;;;;5074777;28;20060;-88
2023/05/07 08:56:27;;;;;;;54.38;32.22;;;11.20;99.90;;;;;;5073677;28;20455;-88
2023/05/07 08:58:58;;;;;;;58.65;31.80;;;11.10;99.90;;;;;;5073710;28;20080;-88
2023/05/07 09:01:24;;;;;;;57.88;34.65;;;11.30;99.90;;;;;;5073351;28;20094;-88
2023/05/07 09:03:51;;;;;;;55.85;35.20;;;11.20;99.90;;;;;;5073624;28;20087;-88
2023/05/07 09:06:17;;;;;;;54.75;31.05;;;11.40;99.90;;;;;;5074829;28;20094;-89
2023/05/07 09:08:53;;;;;;;53.13;31.42;;;11.40;99.90;;;;;;5073480;28;20048;-89
2023/05/07 09:11:22;;;;;;;50.53;29.23;;;11.50;99.90;;;;;;5074651;28;20036;-88
2023/05/07 09:13:49;;;;;;;45.75;27.48;;;11.50;99.90;;;;;;5073155;28;20053;-88
2023/05/07 09:16:16;;;;;;;48.25;28.05;;;11.60;99.90;;;;;;5074450;28;20097;-88
2023/05/07 09:18:43;;;;;;;45.17;27.00;;;11.60;99.90;;;;;;5073249;28;20507;-88
2023/05/07 09:21:15;;;;;;;45.95;27.98;;;11.70;99.90;;;;;;5074209;28;20048;-88
2023/05/07 09:23:41;;;;;;;45.95;27.52;;;11.90;99.90;;;;;;5080403;28;20510;-88
2023/05/07 09:26:11;;;;;;;43.28;28.15;;;12.00;99.90;;;;;;5094139;28;20052;-88
2023/05/07 09:28:40;;;;;;;43.00;26.73;;;12.20;99.90;;;;;;5093762;28;20048;-88
2023/05/07 09:31:06;;;;;;;43.67;26.55;;;12.30;99.90;;;;;;5092841;28;20100;-88
2023/05/07 09:33:31;;;;;;;43.92;26.27;;;12.30;99.90;;;;;;5094063;28;20185;-88
2023/05/07 09:35:57;;;;;;;42.95;25.50;;;12.30;99.90;;;;;;5093650;28;20043;-88
2023/05/07 09:38:23;;;;;;;42.13;26.15;;;12.50;99.90;;;;;;5093581;28;20032;-88
2023/05/07 09:41:09;;;;;;;42.72;27.10;;;12.60;99.90;;;;;;5092428;28;20483;-88
2023/05/07 09:43:36;;;;;;;41.13;25.80;;;12.70;99.90;;;;;;5093716;28;20040;-88
2023/05/07 09:46:12;;;;;;;43.10;26.45;;;12.90;99.90;;;;;;5094160;28;20035;-87
2023/05/07 09:48:41;;;;;;;44.78;27.13;;;13.00;99.90;;;;;;5094662;28;20072;-87
2023/05/07 09:51:29;;;;;;;41.97;26.13;;;13.10;99.90;;;;;;5094545;28;20113;-87
2023/05/07 09:53:56;;;;;;;40.92;26.48;;;13.30;99.90;;;;;;5093890;28;20044;-89
2023/05/07 09:56:23;;;;;;;37.05;25.02;;;13.30;99.90;;;;;;5094019;28;20075;-87
2023/05/07 09:58:51;;;;;;;37.47;24.38;;;13.20;99.90;;;;;;5093662;28;20085;-86
2023/05/07 10:01:19;;;;;;;38.40;26.60;;;13.30;99.90;;;;;;5093663;28;20483;-86
2023/05/07 10:03:46;;;;;;;35.40;23.70;;;13.30;99.90;;;;;;5093938;28;20059;-85
2023/05/07 10:06:13;;;;;;;36.25;24.38;;;13.30;99.90;;;;;;5094215;28;20036;-86
2023/05/07 10:08:40;;;;;;;36.00;24.90;;;13.40;99.90;;;;;;5092277;28;20462;-87
2023/05/07 10:11:05;;;;;;;37.33;24.55;;;13.40;99.90;;;;;;5093652;28;20043;-85
2023/05/07 10:13:35;;;;;;;37.00;26.05;;;13.50;99.90;;;;;;5093496;28;20044;-86
2023/05/07 10:16:02;;;;;;;36.55;25.58;;;13.60;99.90;;;;;;5092399;28;20052;-86
2023/05/07 10:18:32;;;;;;;38.88;25.17;;;13.70;99.90;;;;;;5093460;28;20070;-85
2023/05/07 10:21:11;;;;;;;36.25;26.05;;;13.80;99.90;;;;;;5093632;28;20044;-85
2023/05/07 10:23:38;;;;;;;39.35;25.00;;;13.80;99.90;;;;;;5093687;28;20097;-88
2023/05/07 10:26:07;;;;;;;36.88;24.77;;;13.90;99.90;;;;;;5093161;28;20437;-85
2023/05/07 10:28:39;;;;;;;36.65;24.38;;;14.10;99.90;;;;;;5093532;28;20079;-85
2023/05/07 10:31:14;;;;;;;34.30;23.67;;;14.20;99.90;;;;;;5093549;28;20119;-84
2023/05/07 10:33:42;;;;;;;38.35;24.85;;;14.40;99.90;;;;;;5092817;28;20052;-87
2023/05/07 10:36:08;;;;;;;33.22;23.92;;;14.50;99.90;;;;;;5092340;28;20040;-83
2023/05/07 10:38:33;;;;;;;34.30;24.38;;;14.40;99.90;;;;;;5093413;28;20387;-86
2023/05/07 10:40:59;;;;;;;35.05;23.98;;;14.60;99.90;;;;;;5093281;28;20087;-87
2023/05/07 10:43:25;;;;;;;35.65;22.85;;;14.60;99.90;;;;;;5091829;28;20091;-86
2023/05/07 10:46:20;;;;;;;34.85;23.45;;;14.70;99.90;;;;;;5093299;28;20185;-86
2023/05/07 10:49:00;;;;;;;32.83;23.92;;;14.70;99.90;;;;;;5093204;28;20055;-88
2023/05/07 10:51:27;;;;;;;31.75;23.10;;;14.80;99.90;;;;;;5093508;28;20040;-88
2023/05/07 10:54:19;;;;;;;35.88;23.60;;;14.80;99.90;;;;;;5093190;28;20515;-87
2023/05/07 10:56:47;;;;;;;31.98;23.55;;;15.00;99.90;;;;;;5093075;28;20117;-85
2023/05/07 10:59:27;;;;;;;32.58;23.08;;;14.80;99.90;;;;;;5092925;28;20535;-86
2023/05/07 11:02:03;;;;;;;33.45;23.17;;;14.90;99.90;;;;;;5093155;28;20059;-84
2023/05/07 11:04:31;;;;;;;30.73;22.25;;;14.90;99.90;;;;;;5091820;28;20044;-85
2023/05/07 11:07:20;;;;;;;32.58;23.48;;;14.80;99.90;;;;;;5093023;28;20036;-84
2023/05/07 11:09:52;;;;;;;29.45;21.38;;;15.00;99.90;;;;;;5092870;28;20571;-87
2023/05/07 11:12:36;;;;;;;30.58;21.85;;;15.10;99.90;;;;;;5091733;28;20040;-87
2023/05/07 11:15:13;;;;;;;29.13;21.58;;;15.30;99.90;;;;;;5093104;28;20093;-87
2023/05/07 11:17:58;;;;;;;30.52;22.52;;;15.30;99.90;;;;;;5093216;28;20036;-86
2023/05/07 11:20:53;;;;;;;31.48;23.40;;;15.20;99.90;;;;;;5091865;28;20051;-86
2023/05/07 11:23:37;;;;;;;32.83;22.75;;;15.30;99.90;;;;;;5091544;28;20403;-85
2023/05/07 11:26:11;;;;;;;29.40;21.60;;;15.60;99.90;;;;;;5091323;28;20052;-86
2023/05/07 11:28:42;;;;;;;29.15;20.92;;;15.70;99.90;;;;;;5093101;28;20044;-86
2023/05/07 11:31:08;;;;;;;28.50;21.20;;;15.70;99.90;;;;;;5092793;28;20554;-85
2023/05/07 11:33:35;;;;;;;28.95;20.50;;;15.90;99.90;;;;;;5092760;28;20040;-85
2023/05/07 11:36:03;;;;;;;28.63;22.02;;;15.90;99.90;;;;;;5091487;28;20086;-85
2023/05/07 11:38:35;;;;;;;28.60;22.20;;;16.10;99.90;;;;;;5091666;28;20400;-85
2023/05/07 11:41:02;;;;;;;27.80;22.08;;;16.10;99.90;;;;;;5092891;28;20051;-86
2023/05/07 11:43:28;;;;;;;29.00;21.00;;;16.00;99.90;;;;;;5093260;28;20047;-86
2023/05/07 11:45:54;;;;;;;26.77;20.48;;;15.90;99.90;;;;;;5095024;28;20044;-81
2023/05/07 11:48:21;;;;;;;27.33;20.77;;;16.00;99.90;;;;;;5094775;28;20047;-81
2023/05/07 11:50:59;;;;;;;27.42;20.27;;;15.90;99.90;;;;;;5093030;28;20067;-82
2023/05/07 11:53:26;;;;;;;28.33;20.55;;;16.00;99.90;;;;;;5095651;28;20532;-81
2023/05/07 11:56:06;;;;;;;25.35;19.58;;;16.20;99.90;;;;;;5094247;28;20100;-82
2023/05/07 11:58:31;;;;;;;26.40;20.00;;;16.50;99.90;;;;;;5093704;28;20111;-81
2023/05/07 12:00:57;;;;;;;27.35;20.48;;;16.50;99.90;;;;;;5095490;28;20499;-81
2023/05/07 12:03:22;;;;;;;28.55;21.42;;;16.30;99.90;;;;;;5095481;28;20427;-80
2023/05/07 12:05:48;;;;;;;26.77;21.17;;;16.30;99.90;;;;;;5095583;28;20032;-81
2023/05/07 12:08:15;;;;;;;26.13;21.23;;;16.40;99.90;;;;;;5094063;28;20687;-81
2023/05/07 12:10:45;;;;;;;28.48;21.30;;;16.60;99.90;;;;;;5095450;28;20043;-80
2023/05/07 12:13:22;;;;;;;28.52;21.40;;;16.80;99.90;;;;;;5093324;28;20115;-80
2023/05/07 12:15:55;;;;;;;26.10;21.30;;;17.10;99.90;;;;;;5091693;28;20050;-80
2023/05/07 12:18:21;;;;;;;25.23;19.55;;;17.10;99.90;;;;;;5095898;28;20043;-80
2023/05/07 12:20:47;;;;;;;25.52;19.52;;;17.10;99.90;;;;;;5094294;28;20054;-80
2023/05/07 12:23:14;;;;;;;25.05;19.38;;;17.10;99.90;;;;;;5094835;28;20399;-81
2023/05/07 12:25:51;;;;;;;25.45;19.60;;;16.90;99.90;;;;;;5095370;28;20064;-85
2023/05/07 12:28:20;;;;;;;26.05;20.25;;;16.90;99.90;;;;;;5094290;28;20063;-86